Time;durP1;ratioP1;P1;durP2;ratioP2;P2;SDS_P1;SDS_P2;PMS_P1;PMS_P2;Temp;Humidity;BMP_temperature;BMP_pressure;BME280_temperature;BME280_humidity;BME280_pressure;Samples;Min_cycle;Max_cycle;Signal;HPM_P1;HPM_P2
2020/12/10 00:00:48;;;;;;;12.00;5.60;;;17.50;51.40;;;;;;5092210;28;20158;-79
2020/12/10 00:03:14;;;;;;;13.35;6.45;;;17.50;51.50;;;;;;5091852;28;20181;-79
2020/12/10 00:05:41;;;;;;;13.57;5.90;;;17.50;51.30;;;;;;5092039;28;20169;-78
2020/12/10 00:08:07;;;;;;;12.15;6.15;;;17.50;51.30;;;;;;5091455;28;20153;-79
2020/12/10 00:10:34;;;;;;;14.95;6.15;;;17.50;51.20;;;;;;5092115;28;20193;-80
2020/12/10 00:13:08;;;;;;;14.43;6.57;;;17.50;51.50;;;;;;5074105;28;20165;-80
2020/12/10 00:15:34;;;;;;;12.40;6.05;;;17.50;51.20;;;;;;5065919;28;20169;-80
2020/12/10 00:18:01;;;;;;;13.25;6.47;;;17.50;51.20;;;;;;5092008;28;20157;-79
2020/12/10 00:20:35;;;;;;;11.18;5.90;;;17.50;51.40;;;;;;5074015;28;20161;-78
2020/12/10 00:23:02;;;;;;;13.45;6.22;;;17.50;51.40;;;;;;5074801;28;20161;-80
2020/12/10 00:25:29;;;;;;;10.63;5.93;;;17.50;51.60;;;;;;5091789;28;20225;-79
2020/12/10 00:27:55;;;;;;;12.07;5.78;;;17.50;51.50;;;;;;5074109;28;20200;-79
2020/12/10 00:30:22;;;;;;;11.95;6.05;;;17.50;51.30;;;;;;5091697;28;20166;-80
2020/12/10 00:32:57;;;;;;;8.48;5.63;;;17.50;51.30;;;;;;5091398;28;20173;-79
2020/12/10 00:35:24;;;;;;;11.93;6.07;;;17.50;51.50;;;;;;5091613;28;20154;-79
2020/12/10 00:37:51;;;;;;;11.25;5.90;;;17.50;51.30;;;;;;5092659;28;20161;-80
2020/12/10 00:40:25;;;;;;;10.43;5.88;;;17.50;51.40;;;;;;5073973;28;20154;-79
2020/12/10 00:42:52;;;;;;;9.68;5.95;;;17.50;51.50;;;;;;5092264;28;20157;-79
2020/12/10 00:45:18;;;;;;;10.35;6.30;;;17.50;51.60;;;;;;5092559;28;20161;-79
2020/12/10 00:47:44;;;;;;;11.18;6.32;;;17.50;51.60;;;;;;5074384;28;20141;-79
2020/12/10 00:50:11;;;;;;;8.75;5.90;;;17.50;51.70;;;;;;5091921;28;20157;-79
2020/12/10 00:52:37;;;;;;;9.70;5.72;;;17.40;51.70;;;;;;5073979;28;20165;-79
2020/12/10 00:55:04;;;;;;;11.35;6.13;;;17.50;51.70;;;;;;5092478;28;20164;-79
2020/12/10 00:57:31;;;;;;;12.27;6.28;;;17.40;51.80;;;;;;5092474;28;20153;-80
2020/12/10 00:59:57;;;;;;;10.25;6.05;;;17.50;51.90;;;;;;5092448;28;20217;-79
2020/12/10 01:02:24;;;;;;;10.73;6.20;;;17.40;51.70;;;;;;5091575;28;20180;-80
2020/12/10 01:04:50;;;;;;;13.05;6.28;;;17.40;51.60;;;;;;5091130;28;20154;-79
2020/12/10 01:07:17;;;;;;;12.23;6.30;;;17.50;51.80;;;;;;5073312;28;20176;-79
2020/12/10 01:09:47;;;;;;;10.88;5.55;;;17.50;51.60;;;;;;5056733;28;20532;-78
2020/12/10 01:12:13;;;;;;;9.07;5.93;;;17.40;51.60;;;;;;5073309;28;20678;-80
2020/12/10 01:14:40;;;;;;;9.02;6.05;;;17.40;51.50;;;;;;5091337;28;20539;-79
2020/12/10 01:17:07;;;;;;;9.55;6.22;;;17.40;51.50;;;;;;5091413;28;20150;-79
2020/12/10 01:19:34;;;;;;;8.93;6.07;;;17.50;51.50;;;;;;5091836;28;20158;-79
2020/12/10 01:22:00;;;;;;;9.23;6.30;;;17.50;51.60;;;;;;5091891;28;20172;-79
2020/12/10 01:24:26;;;;;;;9.13;6.00;;;17.50;51.50;;;;;;5091751;28;20282;-79
2020/12/10 01:26:53;;;;;;;8.77;6.05;;;17.40;51.50;;;;;;5092057;28;20169;-81
2020/12/10 01:29:21;;;;;;;10.65;5.90;;;17.40;51.60;;;;;;5091720;28;20521;-80
2020/12/10 01:31:48;;;;;;;10.65;6.10;;;17.50;51.70;;;;;;5092498;28;20177;-79
2020/12/10 01:34:15;;;;;;;11.00;6.20;;;17.40;51.60;;;;;;5074685;28;20161;-80
2020/12/10 01:36:41;;;;;;;12.30;5.97;;;17.40;51.60;;;;;;5092118;28;20164;-80
2020/12/10 01:39:08;;;;;;;10.95;5.95;;;17.40;51.80;;;;;;5092720;28;20188;-79
2020/12/10 01:41:34;;;;;;;11.43;6.55;;;17.40;51.90;;;;;;5092321;28;20166;-79
2020/12/10 01:44:05;;;;;;;10.20;5.85;;;17.40;51.90;;;;;;5093122;28;20203;-80
2020/12/10 01:46:32;;;;;;;11.07;6.10;;;17.40;52.10;;;;;;5092607;28;20164;-79
2020/12/10 01:48:59;;;;;;;9.77;5.55;;;17.40;52.20;;;;;;5075516;28;20172;-80
2020/12/10 01:51:26;;;;;;;10.32;6.15;;;17.30;52.10;;;;;;5075002;28;20193;-79
2020/12/10 01:53:54;;;;;;;13.80;6.45;;;17.30;52.00;;;;;;5092518;28;20188;-79
2020/12/10 01:56:29;;;;;;;10.70;6.43;;;17.30;52.10;;;;;;5092094;28;20166;-80
2020/12/10 01:59:03;;;;;;;9.80;5.82;;;17.40;51.90;;;;;;5074652;28;20157;-79
2020/12/10 02:01:30;;;;;;;10.65;6.65;;;17.40;51.90;;;;;;5075537;28;20157;-78
2020/12/10 02:03:58;;;;;;;11.15;6.20;;;17.40;52.10;;;;;;5075112;28;20165;-79
2020/12/10 02:06:24;;;;;;;9.73;5.60;;;17.40;52.10;;;;;;5057994;28;20199;-80
2020/12/10 02:08:59;;;;;;;12.15;6.18;;;17.40;51.90;;;;;;5074877;28;20233;-80
2020/12/10 02:11:26;;;;;;;9.20;5.97;;;17.40;51.70;;;;;;5074588;28;20188;-80
2020/12/10 02:13:52;;;;;;;10.48;6.38;;;17.40;51.70;;;;;;5093362;28;20161;-78
2020/12/10 02:16:27;;;;;;;10.20;6.47;;;17.40;51.70;;;;;;5093005;28;20177;-79
2020/12/10 02:19:02;;;;;;;10.00;6.05;;;17.30;52.10;;;;;;5091500;28;20178;-80
2020/12/10 02:21:29;;;;;;;9.13;6.10;;;17.30;52.10;;;;;;5068799;28;20160;-78
2020/12/10 02:23:55;;;;;;;9.43;6.18;;;17.30;52.10;;;;;;5068446;28;20276;-80
2020/12/10 02:26:22;;;;;;;9.07;6.20;;;17.30;52.30;;;;;;5068181;28;20556;-79
2020/12/10 02:28:49;;;;;;;11.70;6.18;;;17.30;52.20;;;;;;5086598;28;20176;-80
2020/12/10 02:31:38;;;;;;;10.57;5.97;;;17.30;52.10;;;;;;5085844;28;20185;-80
2020/12/10 02:34:06;;;;;;;10.23;6.07;;;17.30;52.00;;;;;;5065425;28;20224;-80
2020/12/10 02:36:33;;;;;;;9.63;6.28;;;17.30;52.10;;;;;;5051860;28;20165;-79
2020/12/10 02:39:00;;;;;;;11.75;6.55;;;17.30;52.10;;;;;;5089876;28;20179;-79
2020/12/10 02:41:26;;;;;;;11.20;5.85;;;17.30;51.80;;;;;;5055022;28;20158;-78
2020/12/10 02:43:56;;;;;;;10.55;6.38;;;17.30;52.00;;;;;;5071791;28;20162;-78
2020/12/10 02:46:26;;;;;;;10.23;6.30;;;17.30;52.00;;;;;;5071936;28;20170;-80
2020/12/10 02:49:01;;;;;;;12.40;6.18;;;17.30;52.00;;;;;;5090717;28;20192;-80
2020/12/10 02:51:27;;;;;;;10.52;6.05;;;17.30;52.00;;;;;;5072119;28;20188;-80
2020/12/10 02:54:02;;;;;;;10.30;6.43;;;17.30;52.00;;;;;;5090765;28;20158;-80
2020/12/10 02:56:28;;;;;;;10.40;6.35;;;17.30;52.00;;;;;;5089537;28;20184;-80
2020/12/10 02:58:55;;;;;;;10.07;6.18;;;17.30;52.00;;;;;;5090464;28;20189;-78
2020/12/10 03:01:35;;;;;;;9.48;5.93;;;17.30;52.50;;;;;;5090123;28;20166;-79
2020/12/10 03:04:03;;;;;;;10.63;5.82;;;17.30;52.00;;;;;;5090126;28;20157;-79
2020/12/10 03:06:30;;;;;;;11.02;6.68;;;17.30;52.10;;;;;;5089532;28;20181;-80
2020/12/10 03:08:57;;;;;;;10.00;6.13;;;17.30;52.20;;;;;;5089503;28;20168;-79
2020/12/10 03:11:24;;;;;;;8.70;6.05;;;17.30;52.10;;;;;;5070221;28;20717;-80
2020/12/10 03:13:50;;;;;;;10.43;6.18;;;17.30;51.70;;;;;;5070491;28;20215;-80
2020/12/10 03:16:16;;;;;;;10.77;6.05;;;17.30;51.80;;;;;;5070713;28;20184;-80
2020/12/10 03:18:42;;;;;;;8.63;5.68;;;17.30;52.10;;;;;;5089756;28;20153;-79
2020/12/10 03:21:09;;;;;;;11.32;5.93;;;17.30;52.00;;;;;;5090137;28;20213;-80
2020/12/10 03:23:34;;;;;;;9.25;5.95;;;17.30;52.10;;;;;;5089650;28;20225;-79
2020/12/10 03:26:01;;;;;;;8.73;5.75;;;17.30;52.10;;;;;;5088722;28;20634;-79
2020/12/10 03:28:28;;;;;;;10.18;6.05;;;17.30;52.10;;;;;;5088935;28;20161;-79
2020/12/10 03:31:03;;;;;;;10.55;5.90;;;17.30;52.20;;;;;;5088476;28;20207;-80
2020/12/10 03:33:29;;;;;;;9.00;6.13;;;17.30;52.30;;;;;;5088411;28;20582;-80
2020/12/10 03:36:03;;;;;;;12.25;6.80;;;17.30;52.20;;;;;;5088962;28;20165;-78
2020/12/10 03:38:30;;;;;;;10.35;5.82;;;17.30;52.10;;;;;;5070621;28;20208;-80
2020/12/10 03:40:57;;;;;;;11.35;5.68;;;17.30;52.10;;;;;;5069794;28;20240;-79
2020/12/10 03:43:23;;;;;;;11.05;6.10;;;17.30;52.10;;;;;;5088664;28;20161;-79
2020/12/10 03:45:50;;;;;;;10.57;6.00;;;17.30;52.10;;;;;;5088386;28;20158;-80
2020/12/10 03:48:17;;;;;;;9.00;5.93;;;17.30;52.20;;;;;;5089187;28;20188;-79
2020/12/10 03:50:43;;;;;;;9.43;5.88;;;17.20;52.30;;;;;;5088480;28;20189;-80
2020/12/10 03:53:10;;;;;;;10.20;5.68;;;17.20;52.30;;;;;;5088295;28;20753;-79
2020/12/10 03:55:44;;;;;;;11.18;6.25;;;17.20;52.30;;;;;;5070397;28;20173;-79
2020/12/10 03:58:11;;;;;;;13.43;6.68;;;17.30;52.20;;;;;;5087588;28;20515;-79
2020/12/10 04:00:37;;;;;;;10.05;5.88;;;17.30;52.30;;;;;;5069842;28;20193;-79
2020/12/10 04:03:04;;;;;;;8.10;6.20;;;17.30;52.10;;;;;;5088856;28;20278;-79
2020/12/10 04:05:38;;;;;;;10.85;6.30;;;17.30;52.10;;;;;;5070790;28;20538;-79
2020/12/10 04:08:12;;;;;;;9.00;6.30;;;17.30;52.00;;;;;;5087853;28;20183;-80
2020/12/10 04:10:39;;;;;;;8.85;5.60;;;17.30;52.30;;;;;;5088520;28;20184;-79
2020/12/10 04:13:05;;;;;;;10.35;6.07;;;17.30;52.10;;;;;;5087935;28;20157;-80
2020/12/10 04:15:31;;;;;;;10.18;6.05;;;17.30;52.10;;;;;;5069526;28;20635;-81
2020/12/10 04:18:06;;;;;;;10.25;6.40;;;17.30;52.20;;;;;;5088606;28;20158;-80
2020/12/10 04:20:32;;;;;;;14.45;5.95;;;17.30;52.20;;;;;;5069787;28;20661;-79
2020/12/10 04:22:58;;;;;;;9.40;6.25;;;17.30;52.10;;;;;;5088673;28;20236;-79
2020/12/10 04:25:25;;;;;;;11.30;6.30;;;17.30;52.20;;;;;;5088457;28;20289;-80
2020/12/10 04:27:59;;;;;;;10.80;5.85;;;17.30;52.10;;;;;;5087967;28;20172;-81
2020/12/10 04:30:26;;;;;;;9.95;5.88;;;17.30;52.00;;;;;;5088015;28;20153;-80
2020/12/10 04:32:53;;;;;;;9.32;6.00;;;17.30;52.00;;;;;;5088190;28;20156;-79
2020/12/10 04:35:28;;;;;;;9.18;6.38;;;17.30;52.00;;;;;;5070018;28;20149;-78
2020/12/10 04:37:54;;;;;;;9.20;5.55;;;17.30;52.10;;;;;;5069621;28;20153;-79
2020/12/10 04:40:20;;;;;;;10.10;6.45;;;17.30;52.00;;;;;;5087959;28;20165;-79
2020/12/10 04:42:48;;;;;;;8.63;5.97;;;17.30;52.00;;;;;;5053417;28;20213;-79
2020/12/10 04:45:14;;;;;;;12.10;5.90;;;17.30;52.20;;;;;;5070090;28;20526;-79
2020/12/10 04:47:41;;;;;;;9.85;6.32;;;17.30;52.20;;;;;;5088580;28;20169;-79
2020/12/10 04:50:16;;;;;;;12.80;6.57;;;17.30;52.80;;;;;;5088837;28;20192;-79
2020/12/10 04:52:43;;;;;;;8.90;6.00;;;17.30;52.00;;;;;;5072690;28;20157;-79
2020/12/10 04:55:09;;;;;;;9.18;6.30;;;17.30;51.70;;;;;;5072599;28;20591;-79
2020/12/10 04:57:35;;;;;;;11.90;6.75;;;17.30;51.70;;;;;;5073244;28;20157;-78
2020/12/10 05:00:05;;;;;;;9.48;6.28;;;17.30;51.50;;;;;;5070247;28;20157;-78
2020/12/10 05:02:32;;;;;;;9.27;5.80;;;17.50;51.20;;;;;;5088680;28;20184;-79
2020/12/10 05:04:59;;;;;;;7.82;5.88;;;17.50;51.00;;;;;;5053360;28;20601;-79
2020/12/10 05:07:45;;;;;;;9.68;6.07;;;17.50;50.80;;;;;;5070413;28;20169;-80
2020/12/10 05:10:12;;;;;;;9.48;6.32;;;17.60;50.90;;;;;;5088327;28;20165;-79
2020/12/10 05:12:38;;;;;;;10.18;5.97;;;17.60;51.00;;;;;;5054329;28;20154;-79
2020/12/10 05:15:04;;;;;;;8.25;6.13;;;17.60;50.70;;;;;;5070521;28;20237;-79
2020/12/10 05:17:29;;;;;;;10.40;5.90;;;17.60;50.30;;;;;;5069556;28;20161;-79
2020/12/10 05:19:56;;;;;;;9.18;6.03;;;17.60;50.60;;;;;;5069430;28;20183;-80
2020/12/10 05:22:22;;;;;;;10.85;6.57;;;17.60;50.70;;;;;;5037167;28;20165;-79
2020/12/10 05:25:01;;;;;;;8.60;5.70;;;17.60;50.70;;;;;;5049347;28;20575;-79
2020/12/10 05:27:28;;;;;;;9.25;5.97;;;17.60;50.60;;;;;;5065541;28;20165;-79
2020/12/10 05:29:55;;;;;;;8.73;5.97;;;17.60;50.60;;;;;;5065061;28;20158;-79
2020/12/10 05:32:39;;;;;;;9.38;6.00;;;17.50;50.90;;;;;;5064769;28;20212;-78
2020/12/10 05:35:22;;;;;;;8.55;6.15;;;17.50;50.80;;;;;;5064198;28;20142;-80
2020/12/10 05:37:51;;;;;;;9.32;6.18;;;17.50;50.80;;;;;;5064996;28;20176;-79
2020/12/10 05:40:25;;;;;;;9.43;5.82;;;17.60;50.50;;;;;;5086123;28;20150;-79
2020/12/10 05:42:52;;;;;;;9.07;6.10;;;17.60;50.60;;;;;;5068313;28;20326;-79
2020/12/10 05:45:20;;;;;;;9.73;6.15;;;17.60;50.20;;;;;;5086846;28;20154;-78
2020/12/10 05:47:58;;;;;;;8.93;6.03;;;17.70;50.30;;;;;;5087113;28;20620;-79
2020/12/10 05:50:26;;;;;;;8.85;6.13;;;17.60;50.30;;;;;;5049113;28;20226;-79
2020/12/10 05:53:05;;;;;;;11.02;6.32;;;17.60;50.10;;;;;;5083827;28;20248;-79
2020/12/10 05:55:36;;;;;;;9.27;6.35;;;17.60;50.00;;;;;;5083779;28;20330;-80
2020/12/10 05:58:04;;;;;;;9.40;6.20;;;17.70;50.00;;;;;;5065669;28;20156;-79
2020/12/10 06:00:38;;;;;;;8.23;6.07;;;17.70;49.80;;;;;;5065799;28;20158;-78
2020/12/10 06:03:05;;;;;;;8.23;6.03;;;17.70;49.70;;;;;;5065953;28;20153;-79
2020/12/10 06:05:32;;;;;;;10.13;6.00;;;17.70;50.00;;;;;;5083245;28;20158;-78
2020/12/10 06:08:04;;;;;;;8.95;6.50;;;17.60;50.00;;;;;;5066143;28;20219;-79
2020/12/10 06:10:41;;;;;;;10.27;6.35;;;17.60;50.20;;;;;;5084219;28;20152;-79
2020/12/10 06:13:09;;;;;;;9.18;5.93;;;17.50;50.40;;;;;;5070165;28;20153;-79
2020/12/10 06:15:44;;;;;;;9.18;6.55;;;17.60;50.20;;;;;;5087112;28;20161;-79
2020/12/10 06:18:13;;;;;;;8.27;6.30;;;17.60;50.10;;;;;;5086847;28;20161;-79
2020/12/10 06:20:46;;;;;;;9.30;6.43;;;17.60;50.00;;;;;;5087449;28;20523;-79
2020/12/10 06:23:29;;;;;;;9.70;6.53;;;17.60;49.90;;;;;;5068766;28;20158;-79
2020/12/10 06:25:59;;;;;;;9.65;6.50;;;17.60;50.00;;;;;;5067490;28;20200;-79
2020/12/10 06:28:25;;;;;;;9.98;6.65;;;17.60;50.00;;;;;;5087888;28;20202;-79
2020/12/10 06:31:08;;;;;;;8.70;6.25;;;17.60;49.90;;;;;;5070992;28;20184;-79
2020/12/10 06:33:44;;;;;;;9.25;6.32;;;17.60;49.90;;;;;;5088129;28;20182;-78
2020/12/10 06:36:27;;;;;;;8.55;6.38;;;17.60;50.00;;;;;;5086752;28;20149;-79
2020/12/10 06:39:13;;;;;;;7.80;6.18;;;17.60;50.10;;;;;;5084401;28;20165;-79
2020/12/10 06:42:00;;;;;;;9.10;6.15;;;17.60;49.90;;;;;;5083076;28;20600;-78
2020/12/10 06:44:32;;;;;;;9.00;6.47;;;17.50;49.80;;;;;;5078816;28;20248;-79
2020/12/10 06:46:58;;;;;;;9.05;6.45;;;17.50;49.90;;;;;;5069794;28;20223;-78
2020/12/10 06:49:31;;;;;;;9.10;6.75;;;17.50;49.90;;;;;;5068069;28;20162;-78
2020/12/10 06:52:29;;;;;;;10.38;6.70;;;17.60;49.60;;;;;;5068031;28;20188;-80
2020/12/10 06:55:08;;;;;;;10.93;6.88;;;17.60;49.80;;;;;;4983231;28;20240;-78
2020/12/10 06:58:15;;;;;;;10.18;6.47;;;17.60;49.80;;;;;;4983632;28;20180;-78
2020/12/10 07:01:23;;;;;;;9.32;6.40;;;17.60;49.50;;;;;;4981457;28;20180;-79
2020/12/10 07:04:16;;;;;;;8.15;6.30;;;17.60;49.40;;;;;;4981959;28;20172;-77
2020/12/10 07:07:11;;;;;;;10.30;6.93;;;17.60;49.60;;;;;;5001320;28;20203;-78
2020/12/10 07:10:08;;;;;;;10.43;6.95;;;17.60;49.40;;;;;;5000997;28;20163;-78
2020/12/10 07:12:54;;;;;;;11.05;7.05;;;17.60;49.40;;;;;;5001992;28;20238;-79
2020/12/10 07:15:39;;;;;;;9.25;6.60;;;17.60;49.40;;;;;;4985806;28;20694;-79
2020/12/10 07:18:31;;;;;;;9.93;6.78;;;17.60;49.20;;;;;;4984931;28;20215;-79
2020/12/10 07:21:16;;;;;;;10.90;7.00;;;17.70;49.40;;;;;;4985320;28;20741;-80
2020/12/10 07:23:42;;;;;;;8.88;6.65;;;17.60;49.40;;;;;;4984300;28;20254;-79
2020/12/10 07:26:27;;;;;;;10.27;7.03;;;17.60;49.40;;;;;;4985019;28;20165;-78
2020/12/10 07:29:13;;;;;;;9.25;6.75;;;17.60;49.00;;;;;;4988647;28;20183;-79
2020/12/10 07:31:41;;;;;;;8.73;6.78;;;17.60;49.30;;;;;;5066717;28;20210;-78
2020/12/10 07:34:15;;;;;;;9.05;6.47;;;17.60;49.40;;;;;;5066842;28;20150;-78
2020/12/10 07:36:49;;;;;;;8.82;6.72;;;17.60;49.30;;;;;;5068132;28;20153;-79
2020/12/10 07:39:35;;;;;;;10.13;7.10;;;17.60;49.10;;;;;;5049909;28;20168;-78
2020/12/10 07:42:01;;;;;;;9.48;6.20;;;17.60;49.20;;;;;;5066762;28;20186;-80
2020/12/10 07:44:30;;;;;;;10.55;6.65;;;17.60;49.40;;;;;;5070442;28;20159;-79
2020/12/10 07:46:57;;;;;;;9.05;6.78;;;17.60;49.40;;;;;;5072717;28;20158;-78
2020/12/10 07:49:42;;;;;;;9.57;6.65;;;17.60;49.00;;;;;;5073735;28;20144;-79
2020/12/10 07:52:12;;;;;;;8.75;6.38;;;17.70;49.10;;;;;;5073643;28;20234;-79
2020/12/10 07:54:51;;;;;;;8.93;7.05;;;17.70;49.00;;;;;;5074028;28;20138;-80
2020/12/10 07:57:28;;;;;;;10.10;6.88;;;17.70;49.00;;;;;;5073612;28;20211;-78
2020/12/10 08:00:01;;;;;;;10.13;6.95;;;17.60;49.20;;;;;;5071966;28;20146;-79
2020/12/10 08:02:46;;;;;;;9.70;6.57;;;17.60;49.10;;;;;;5054609;28;20189;-79
2020/12/10 08:05:18;;;;;;;9.25;6.88;;;17.60;49.10;;;;;;5070325;28;20170;-80
2020/12/10 08:08:07;;;;;;;9.50;6.85;;;17.60;49.10;;;;;;5068903;28;20158;-80
2020/12/10 08:10:34;;;;;;;12.25;7.30;;;17.60;49.20;;;;;;5068023;28;20192;-79
2020/12/10 08:13:19;;;;;;;9.85;6.90;;;17.60;48.90;;;;;;5068973;28;20146;-78
2020/12/10 08:15:47;;;;;;;9.95;6.70;;;17.60;49.10;;;;;;5069655;28;20225;-80
2020/12/10 08:18:14;;;;;;;8.15;6.53;;;17.60;49.00;;;;;;5053992;28;20154;-79
2020/12/10 08:20:42;;;;;;;10.40;6.88;;;17.60;49.30;;;;;;5053604;28;20154;-79
2020/12/10 08:23:09;;;;;;;9.88;7.20;;;17.60;48.90;;;;;;5054607;28;20196;-79
2020/12/10 08:25:35;;;;;;;8.77;6.43;;;17.60;49.20;;;;;;5076205;28;20213;-79
2020/12/10 08:28:07;;;;;;;11.45;7.05;;;17.60;48.80;;;;;;5073187;28;20162;-79
2020/12/10 08:30:52;;;;;;;11.90;6.68;;;17.60;49.10;;;;;;5094490;28;20157;-79
2020/12/10 08:33:35;;;;;;;13.52;7.35;;;17.60;48.80;;;;;;5095650;28;20155;-79
2020/12/10 08:36:01;;;;;;;15.00;7.22;;;17.50;49.30;;;;;;5111716;28;20182;-79
2020/12/10 08:38:38;;;;;;;8.52;6.93;;;17.50;49.40;;;;;;5093688;28;20220;-78
2020/12/10 08:41:07;;;;;;;13.88;6.93;;;17.50;49.20;;;;;;5094758;28;20531;-79
2020/12/10 08:43:33;;;;;;;13.10;7.10;;;17.50;49.20;;;;;;5113002;28;20152;-78
2020/12/10 08:46:14;;;;;;;11.23;7.00;;;17.50;49.10;;;;;;5114117;28;20161;-78
2020/12/10 08:48:40;;;;;;;11.13;7.25;;;17.50;49.10;;;;;;5078176;28;20171;-79
2020/12/10 08:51:07;;;;;;;11.57;6.85;;;17.50;48.90;;;;;;5112265;28;20191;-78
2020/12/10 08:53:34;;;;;;;14.15;7.03;;;17.60;49.10;;;;;;5111729;28;20162;-78
2020/12/10 08:56:04;;;;;;;11.25;7.13;;;17.60;48.80;;;;;;5111193;28;20157;-78
2020/12/10 08:58:30;;;;;;;12.57;7.15;;;17.70;48.60;;;;;;5110824;28;20160;-79
2020/12/10 09:00:59;;;;;;;10.98;7.10;;;17.70;48.80;;;;;;5108164;28;20164;-76
2020/12/10 09:03:26;;;;;;;11.60;6.82;;;17.70;48.80;;;;;;5107437;28;20145;-78
2020/12/10 09:05:52;;;;;;;11.55;6.97;;;17.70;48.70;;;;;;5088071;28;20161;-80
2020/12/10 09:08:19;;;;;;;12.45;7.20;;;17.60;48.70;;;;;;5089311;28;20213;-78
2020/12/10 09:10:54;;;;;;;11.40;7.10;;;17.70;48.60;;;;;;5086969;28;20204;-79
2020/12/10 09:13:23;;;;;;;11.13;7.00;;;17.70;48.80;;;;;;5103714;28;20582;-77
2020/12/10 09:15:54;;;;;;;11.90;6.88;;;17.60;49.10;;;;;;5104666;28;20212;-77
2020/12/10 09:18:20;;;;;;;12.93;6.63;;;17.60;48.90;;;;;;5104368;28;20145;-78
2020/12/10 09:20:47;;;;;;;11.38;6.80;;;17.60;48.70;;;;;;5105626;28;20702;-76
2020/12/10 09:23:18;;;;;;;13.13;7.28;;;17.70;48.80;;;;;;5103283;28;20244;-78
2020/12/10 09:25:45;;;;;;;9.88;6.90;;;17.70;48.50;;;;;;5066863;28;20169;-77
2020/12/10 09:28:20;;;;;;;10.57;6.38;;;17.80;48.20;;;;;;5067016;28;20153;-77
2020/12/10 09:30:47;;;;;;;13.68;6.97;;;17.80;48.20;;;;;;5066751;28;20197;-78
2020/12/10 09:33:13;;;;;;;10.93;6.57;;;17.80;48.50;;;;;;5084618;28;20248;-77
2020/12/10 09:35:40;;;;;;;13.80;7.55;;;17.70;48.80;;;;;;5066829;28;20157;-76
2020/12/10 09:38:07;;;;;;;11.57;6.93;;;17.70;48.70;;;;;;5084668;28;20157;-77
2020/12/10 09:40:34;;;;;;;11.07;6.78;;;17.70;48.50;;;;;;5066854;28;20181;-77
2020/12/10 09:42:59;;;;;;;11.25;6.80;;;17.70;48.60;;;;;;5067022;28;20158;-77
2020/12/10 09:45:34;;;;;;;11.90;6.72;;;17.70;48.60;;;;;;5051833;28;20172;-78
2020/12/10 09:48:01;;;;;;;12.43;6.65;;;17.70;48.60;;;;;;5073072;28;20281;-76
2020/12/10 09:50:31;;;;;;;18.73;7.47;;;17.70;49.10;;;;;;5090624;28;20218;-77
2020/12/10 09:53:10;;;;;;;19.80;7.72;;;17.70;48.50;;;;;;5056195;28;20173;-76
2020/12/10 09:58:15;;;;;;;17.02;6.93;;;17.70;48.50;;;;;;5086785;28;20157;-76
2020/12/10 10:00:48;;;;;;;21.63;7.97;;;17.70;48.40;;;;;;5087554;28;20161;-79
2020/12/10 10:03:18;;;;;;;22.50;7.97;;;17.80;48.40;;;;;;5072142;28;20255;-76
2020/12/10 10:05:44;;;;;;;31.95;8.63;;;17.80;48.60;;;;;;5070710;28;20150;-76
2020/12/10 10:08:22;;;;;;;34.65;8.18;;;17.70;48.70;;;;;;5072423;28;20161;-77
2020/12/10 10:10:49;;;;;;;37.90;8.20;;;17.80;48.60;;;;;;5091032;28;20248;-78
2020/12/10 10:13:23;;;;;;;24.75;7.88;;;17.80;48.60;;;;;;5088729;28;20157;-77
2020/12/10 10:15:51;;;;;;;27.67;8.05;;;17.80;48.20;;;;;;5089279;28;20153;-77
2020/12/10 10:18:18;;;;;;;20.92;7.30;;;17.80;48.30;;;;;;5054476;28;20633;-77
2020/12/10 10:20:45;;;;;;;21.58;8.18;;;17.80;48.30;;;;;;5071253;28;20200;-77
2020/12/10 10:23:14;;;;;;;16.85;7.07;;;17.90;48.00;;;;;;5072058;28;20217;-77
2020/12/10 10:25:40;;;;;;;20.38;7.43;;;17.90;47.90;;;;;;5054316;28;20585;-78
2020/12/10 10:28:16;;;;;;;21.13;7.78;;;17.90;48.10;;;;;;5088810;28;20157;-77
2020/12/10 10:30:50;;;;;;;28.65;8.07;;;17.90;48.00;;;;;;5088460;28;20157;-77
2020/12/10 10:33:25;;;;;;;26.67;7.50;;;17.90;48.30;;;;;;5087333;28;20228;-76
2020/12/10 10:35:53;;;;;;;16.92;7.07;;;17.90;48.00;;;;;;5089460;28;20214;-77
2020/12/10 10:38:20;;;;;;;23.25;7.63;;;17.90;48.00;;;;;;5071633;28;20149;-77
2020/12/10 10:40:48;;;;;;;25.95;7.55;;;17.90;48.40;;;;;;5088799;28;20200;-77
2020/12/10 10:43:16;;;;;;;18.00;7.65;;;17.80;48.70;;;;;;5088556;28;20154;-77
2020/12/10 10:45:43;;;;;;;23.50;7.15;;;17.80;48.20;;;;;;5088940;28;20166;-77
2020/12/10 10:48:09;;;;;;;25.60;7.75;;;18.00;47.80;;;;;;5088299;28;20518;-76
2020/12/10 10:50:36;;;;;;;25.40;7.80;;;18.00;47.90;;;;;;5054227;28;20180;-77
2020/12/10 10:53:05;;;;;;;16.80;7.60;;;17.90;48.10;;;;;;5051624;28;20173;-78
2020/12/10 10:55:39;;;;;;;24.08;8.27;;;18.00;47.80;;;;;;5084595;28;20161;-78
2020/12/10 10:58:07;;;;;;;24.08;8.15;;;18.00;48.20;;;;;;5086361;28;20157;-77
2020/12/10 11:00:38;;;;;;;17.85;7.55;;;18.00;47.80;;;;;;5090726;28;20169;-78
2020/12/10 11:03:05;;;;;;;16.15;7.10;;;18.00;48.20;;;;;;5090757;28;20160;-78
2020/12/10 11:05:32;;;;;;;17.05;6.82;;;18.00;47.80;;;;;;5088990;28;20157;-78
2020/12/10 11:07:59;;;;;;;22.30;7.45;;;18.00;47.50;;;;;;5071347;28;20217;-79
2020/12/10 11:10:24;;;;;;;21.83;7.68;;;18.10;47.50;;;;;;5088932;28;20146;-77
2020/12/10 11:12:52;;;;;;;17.63;7.50;;;18.10;47.60;;;;;;5088951;28;20206;-78
2020/12/10 11:15:18;;;;;;;16.55;7.05;;;18.00;47.80;;;;;;5089856;28;20154;-78
2020/12/10 11:17:44;;;;;;;19.98;7.43;;;18.00;47.60;;;;;;5071045;28;20512;-78
2020/12/10 11:20:09;;;;;;;14.48;7.07;;;17.90;48.10;;;;;;5089513;28;20162;-78
2020/12/10 11:22:43;;;;;;;16.08;6.72;;;17.90;48.00;;;;;;5088042;28;20162;-78
2020/12/10 11:25:10;;;;;;;15.93;6.90;;;17.90;48.00;;;;;;5103527;28;20220;-79
2020/12/10 11:27:36;;;;;;;18.05;7.32;;;17.90;48.00;;;;;;5107147;28;20168;-79
2020/12/10 11:30:03;;;;;;;13.85;6.75;;;17.90;48.10;;;;;;5104554;28;20153;-79
2020/12/10 11:32:30;;;;;;;13.27;6.15;;;17.90;48.00;;;;;;5105916;28;20194;-79
2020/12/10 11:34:55;;;;;;;17.20;6.82;;;18.00;47.70;;;;;;5108843;28;20161;-77
2020/12/10 11:37:23;;;;;;;12.75;6.78;;;18.00;47.60;;;;;;5106480;28;20153;-78
2020/12/10 11:39:54;;;;;;;17.88;6.57;;;18.00;48.00;;;;;;5104794;28;20161;-79
2020/12/10 11:42:21;;;;;;;16.80;7.05;;;17.90;47.60;;;;;;5071784;28;20165;-77
2020/12/10 11:44:49;;;;;;;15.18;6.53;;;17.90;47.70;;;;;;5105902;28;20202;-77
2020/12/10 11:47:15;;;;;;;14.27;6.75;;;17.90;47.70;;;;;;5106455;28;20153;-78
2020/12/10 11:49:50;;;;;;;15.68;6.80;;;17.90;47.90;;;;;;5107062;28;20184;-77
2020/12/10 11:52:16;;;;;;;13.52;6.60;;;17.90;48.00;;;;;;5105614;28;20265;-78
2020/12/10 11:54:42;;;;;;;16.25;6.60;;;17.80;47.90;;;;;;5106757;28;20367;-77
2020/12/10 11:57:11;;;;;;;16.10;6.78;;;17.80;48.10;;;;;;5088788;28;20164;-77
2020/12/10 11:59:37;;;;;;;13.23;6.85;;;17.90;47.90;;;;;;5089070;28;20636;-77
2020/12/10 12:02:06;;;;;;;16.00;6.70;;;17.90;47.90;;;;;;5106195;28;20161;-77
2020/12/10 12:04:32;;;;;;;17.92;6.75;;;17.90;47.90;;;;;;5105762;28;20161;-77
2020/12/10 12:07:00;;;;;;;12.68;6.68;;;17.80;48.00;;;;;;5087882;28;20165;-77
2020/12/10 12:09:26;;;;;;;15.63;6.70;;;17.90;48.00;;;;;;5103924;28;20154;-78
2020/12/10 12:11:54;;;;;;;12.77;6.55;;;17.80;48.00;;;;;;5085274;28;20250;-78
2020/12/10 12:14:21;;;;;;;12.70;6.13;;;17.80;47.80;;;;;;5103617;28;20187;-77
2020/12/10 12:16:48;;;;;;;17.33;6.63;;;17.80;47.70;;;;;;5102313;28;20157;-78
2020/12/10 12:19:15;;;;;;;11.48;5.90;;;17.90;47.70;;;;;;5085348;28;20149;-79
2020/12/10 12:21:42;;;;;;;13.45;6.20;;;17.80;47.70;;;;;;5103069;28;20168;-78
2020/12/10 12:24:08;;;;;;;11.70;6.80;;;17.90;47.80;;;;;;5100537;28;20208;-79
2020/12/10 12:26:34;;;;;;;15.85;6.68;;;17.80;48.00;;;;;;5101816;28;20167;-78
2020/12/10 12:29:01;;;;;;;14.48;6.32;;;17.80;47.70;;;;;;5084292;28;20157;-76
2020/12/10 12:31:46;;;;;;;12.20;6.53;;;17.90;47.60;;;;;;5101136;28;20184;-77
2020/12/10 12:34:13;;;;;;;13.60;6.53;;;18.00;47.20;;;;;;5098816;28;20224;-78
2020/12/10 12:36:40;;;;;;;14.57;6.03;;;18.00;47.50;;;;;;5100750;28;20217;-78
2020/12/10 12:39:06;;;;;;;13.48;6.90;;;17.90;47.20;;;;;;5081873;28;20173;-78
2020/12/10 12:41:33;;;;;;;22.70;6.32;;;18.00;47.40;;;;;;5065328;28;20172;-78
2020/12/10 12:44:00;;;;;;;17.95;6.57;;;17.90;47.60;;;;;;5097285;28;20163;-78
2020/12/10 12:46:27;;;;;;;9.98;6.57;;;17.90;46.90;;;;;;5083624;28;20256;-78
2020/12/10 12:49:02;;;;;;;15.32;5.93;;;18.00;47.10;;;;;;5100654;28;20168;-79
2020/12/10 12:51:28;;;;;;;18.23;6.63;;;18.00;47.20;;;;;;5102225;28;20180;-79
2020/12/10 12:53:55;;;;;;;17.75;6.45;;;18.00;47.00;;;;;;5107027;28;20156;-78
2020/12/10 12:56:22;;;;;;;14.57;6.45;;;18.00;46.90;;;;;;5106352;28;20599;-78
2020/12/10 12:58:50;;;;;;;16.38;6.70;;;18.00;47.20;;;;;;5103269;28;20156;-78